createdAt,value
2023-02-25T00:00:22.855Z,100067.88
2023-02-25T00:00:46.301Z,100068.66
2023-02-25T00:01:09.584Z,100070.50
2023-02-25T00:01:32.353Z,100067.88
2023-02-25T00:02:03.815Z,100071.22
2023-02-25T00:02:26.333Z,100069.56
2023-02-25T00:02:49.986Z,100072.13
2023-02-25T00:03:12.612Z,100072.13
2023-02-25T00:03:35.740Z,100069.50
2023-02-25T00:03:59.030Z,100067.78
2023-02-25T00:04:20.742Z,100068.00
2023-02-25T00:04:42.973Z,100066.22
2023-02-25T00:05:09.134Z,100076.53
2023-02-25T00:05:32.065Z,100069.72
2023-02-25T00:05:54.842Z,100067.78
2023-02-25T00:06:16.708Z,100070.44
2023-02-25T00:06:38.730Z,100068.66
2023-02-25T00:07:01.308Z,100066.94
2023-02-25T00:07:30.795Z,100071.22
2023-02-25T00:07:53.901Z,100068.56
2023-02-25T00:08:16.580Z,100069.50
2023-02-25T00:08:38.239Z,100076.44
2023-02-25T00:09:00.988Z,100067.56
2023-02-25T00:09:23.031Z,100060.50
2023-02-25T00:09:44.904Z,100063.97
2023-02-25T00:10:07.820Z,100059.59
2023-02-25T00:10:31.285Z,100069.22
2023-02-25T00:10:57.910Z,100064.84
2023-02-25T00:11:20.470Z,100065.75
2023-02-25T00:11:43.198Z,100064.84
2023-02-25T00:12:05.293Z,100063.13
2023-02-25T00:12:28.488Z,100063.13
2023-02-25T00:12:50.817Z,100064.16
2023-02-25T00:13:18.474Z,100058.84
2023-02-25T00:13:43.627Z,100058.72
2023-02-25T00:14:05.496Z,100056.09
2023-02-25T00:14:27.518Z,100064.88
2023-02-25T00:14:49.322Z,100056.97
2023-02-25T00:15:11.411Z,100064.84
2023-02-25T00:15:34.133Z,100056.78
2023-02-25T00:15:58.156Z,100055.06
2023-02-25T00:16:22.516Z,100060.47
2023-02-25T00:16:45.025Z,100063.97
2023-02-25T00:17:06.828Z,100059.44
2023-02-25T00:17:29.577Z,100059.38
2023-02-25T00:17:51.525Z,100061.94
2023-02-25T00:18:13.349Z,100063.63
2023-02-25T00:18:35.401Z,100058.34
2023-02-25T00:19:00.652Z,100055.59
2023-02-25T00:19:22.295Z,100070.56
2023-02-25T00:19:44.030Z,100059.09
2023-02-25T00:20:13.092Z,100062.50
2023-02-25T00:20:34.847Z,100053.81
2023-02-25T00:20:58.245Z,100064.16
2023-02-25T00:21:20.106Z,100059.88
2023-02-25T00:21:41.864Z,100061.63
2023-02-25T00:22:03.761Z,100055.63
2023-02-25T00:22:27.133Z,100057.19
2023-02-25T00:22:49.335Z,100067.00
2023-02-25T00:23:11.091Z,100066.19
2023-02-25T00:23:32.918Z,100065.22
2023-02-25T00:23:58.235Z,100064.34
2023-02-25T00:24:22.209Z,100063.50
2023-02-25T00:24:43.965Z,100067.09
2023-02-25T00:25:07.318Z,100069.69
2023-02-25T00:25:29.098Z,100069.72
2023-02-25T00:26:00.124Z,100062.63
2023-02-25T00:26:23.306Z,100067.00
2023-02-25T00:26:45.485Z,100071.47
2023-02-25T00:27:09.422Z,100067.03
2023-02-25T00:27:31.378Z,100066.13
2023-02-25T00:27:54.326Z,100074.03
2023-02-25T00:28:16.041Z,100077.59
2023-02-25T00:28:39.946Z,100074.03
2023-02-25T00:29:01.729Z,100070.41
2023-02-25T00:29:24.473Z,100076.69
2023-02-25T00:29:46.101Z,100077.50
2023-02-25T00:30:10.758Z,100073.97
2023-02-25T00:30:32.870Z,100073.09
2023-02-25T00:30:55.006Z,100069.66
2023-02-25T00:31:20.515Z,100076.91
2023-02-25T00:31:42.443Z,100068.38
2023-02-25T00:32:04.435Z,100071.03
2023-02-25T00:32:27.190Z,100072.03
2023-02-25T00:32:49.925Z,100074.66
2023-02-25T00:33:12.782Z,100068.38
2023-02-25T00:33:34.425Z,100071.88
2023-02-25T00:33:56.131Z,100065.72
2023-02-25T00:34:17.937Z,100070.09
2023-02-25T00:34:40.777Z,100071.81
2023-02-25T00:35:04.624Z,100075.28
2023-02-25T00:35:27.765Z,100066.75
2023-02-25T00:35:49.921Z,100072.66
2023-02-25T00:36:14.847Z,100070.94
2023-02-25T00:36:37.578Z,100074.72
2023-02-25T00:37:00.879Z,100083.44
2023-02-25T00:37:23.207Z,100075.47
2023-02-25T00:37:44.998Z,100077.19
2023-02-25T00:38:15.866Z,100076.19
2023-02-25T00:38:41.412Z,100076.34
2023-02-25T00:39:03.597Z,100079.84
2023-02-25T00:39:36.345Z,100075.47
2023-02-25T00:39:59.071Z,100076.44
2023-02-25T00:40:22.189Z,100078.16
2023-02-25T00:40:44.025Z,100075.63
2023-02-25T00:41:11.414Z,100067.78
2023-02-25T00:41:33.994Z,100074.84
2023-02-25T00:41:55.605Z,100076.63
2023-02-25T00:42:18.856Z,100071.34
2023-02-25T00:42:41.752Z,100074.03
2023-02-25T00:43:03.454Z,100074.91
2023-02-25T00:43:26.201Z,100071.63
2023-02-25T00:43:51.186Z,100079.47
2023-02-25T00:44:13.019Z,100075.91
2023-02-25T00:44:34.798Z,100080.31
2023-02-25T00:44:57.562Z,100073.16
2023-02-25T00:45:19.257Z,100067.00
2023-02-25T00:45:40.913Z,100067.69
2023-02-25T00:46:02.635Z,100071.22
2023-02-25T00:46:26.763Z,100077.31
2023-02-25T00:46:48.622Z,100075.47
2023-02-25T00:47:10.497Z,100077.19
2023-02-25T00:47:33.109Z,100074.53
2023-02-25T00:47:54.797Z,100071.75
2023-02-25T00:48:17.524Z,100077.00
2023-02-25T00:48:40.199Z,100075.28
2023-02-25T00:49:02.384Z,100076.19
2023-02-25T00:49:32.217Z,100074.53
2023-02-25T00:49:55.424Z,100072.63
2023-02-25T00:50:17.237Z,100077.00
2023-02-25T00:50:40.382Z,100074.44
2023-02-25T00:51:06.511Z,100068.28
2023-02-25T00:51:32.089Z,100069.13
2023-02-25T00:51:53.800Z,100061.38
2023-02-25T00:52:16.843Z,100077.91
2023-02-25T00:52:38.966Z,100074.38
2023-02-25T00:53:01.999Z,100064.66
2023-02-25T00:53:23.721Z,100078.72
2023-02-25T00:53:45.996Z,100069.13
2023-02-25T00:54:07.848Z,100063.72
2023-02-25T00:54:31.097Z,100058.53
2023-02-25T00:54:52.874Z,100075.13
2023-02-25T00:55:14.530Z,100068.09
2023-02-25T00:55:36.573Z,100072.53
2023-02-25T00:55:59.562Z,100072.59
2023-02-25T00:56:22.739Z,100069.00
2023-02-25T00:56:44.550Z,100067.34
2023-02-25T00:57:06.816Z,100062.06
2023-02-25T00:57:28.553Z,100067.22
2023-02-25T00:57:50.570Z,100062.00
2023-02-25T00:58:13.441Z,100074.44
2023-02-25T00:58:36.644Z,100077.25
2023-02-25T00:58:59.654Z,100070.19
2023-02-25T00:59:21.574Z,100062.22
2023-02-25T00:59:44.173Z,100069.13
2023-02-25T01:00:10.221Z,100069.09
2023-02-25T01:00:40.470Z,100062.00
2023-02-25T01:01:17.131Z,100061.06
2023-02-25T01:01:41.025Z,100070.75
2023-02-25T01:02:02.813Z,100066.38
2023-02-25T01:02:24.801Z,100066.38
2023-02-25T01:02:46.742Z,100069.78
2023-02-25T01:03:08.381Z,100069.09
2023-02-25T01:03:31.154Z,100059.41
2023-02-25T01:03:55.689Z,100060.47
2023-02-25T01:04:17.650Z,100065.88
2023-02-25T01:04:39.554Z,100064.13
2023-02-25T01:05:03.638Z,100065.03
2023-02-25T01:05:25.565Z,100079.47
2023-02-25T01:05:49.579Z,100070.59
2023-02-25T01:06:11.741Z,100069.59
2023-02-25T01:06:36.568Z,100069.50
2023-02-25T01:06:58.614Z,100072.25
2023-02-25T01:07:21.738Z,100064.16
2023-02-25T01:07:43.471Z,100077.34
2023-02-25T01:08:05.989Z,100069.41
2023-02-25T01:08:28.964Z,100077.19
2023-02-25T01:08:50.856Z,100071.91
2023-02-25T01:09:13.980Z,100071.16
2023-02-25T01:09:35.874Z,100080.69
2023-02-25T01:09:57.720Z,100072.66
2023-02-25T01:10:20.469Z,100068.38
2023-02-25T01:10:42.273Z,100073.72
2023-02-25T01:11:11.171Z,100068.41
2023-02-25T01:11:35.830Z,100066.06
2023-02-25T01:11:58.419Z,100076.47
2023-02-25T01:12:20.181Z,100074.72
2023-02-25T01:12:42.015Z,100075.63
2023-02-25T01:13:04.823Z,100072.88
2023-02-25T01:13:27.946Z,100063.25
2023-02-25T01:13:49.971Z,100068.66
2023-02-25T01:14:14.417Z,100066.03
2023-02-25T01:14:36.169Z,100066.94
2023-02-25T01:15:00.097Z,100061.63
2023-02-25T01:15:21.864Z,100067.09
2023-02-25T01:15:43.714Z,100067.09
2023-02-25T01:16:11.049Z,100066.25
2023-02-25T01:16:35.540Z,100073.38
2023-02-25T01:17:02.106Z,100064.50
2023-02-25T01:17:24.039Z,100070.09
2023-02-25T01:17:45.840Z,100075.94
2023-02-25T01:18:07.676Z,100075.06
2023-02-25T01:18:30.840Z,100071.53
2023-02-25T01:18:54.147Z,100075.91
2023-02-25T01:19:19.632Z,100070.63
2023-02-25T01:19:42.737Z,100071.38
2023-02-25T01:20:11.597Z,100072.22
2023-02-25T01:20:38.039Z,100071.22
2023-02-25T01:21:01.443Z,100071.22
2023-02-25T01:21:31.435Z,100076.63
2023-02-25T01:21:55.660Z,100068.78
2023-02-25T01:22:17.444Z,100066.09
2023-02-25T01:22:41.848Z,100067.94
2023-02-25T01:23:04.681Z,100068.09
2023-02-25T01:23:26.507Z,100070.66
2023-02-25T01:23:49.327Z,100073.31
2023-02-25T01:24:13.218Z,100073.25
2023-02-25T01:24:36.367Z,100072.41
2023-02-25T01:24:58.180Z,100066.28
2023-02-25T01:25:19.845Z,100067.22
2023-02-25T01:25:41.904Z,100070.72
2023-02-25T01:26:05.310Z,100068.13
2023-02-25T01:26:29.679Z,100077.66
2023-02-25T01:26:53.610Z,100081.34
2023-02-25T01:27:15.388Z,100066.38
2023-02-25T01:27:38.120Z,100075.94
2023-02-25T01:28:00.507Z,100079.56
2023-02-25T01:28:23.640Z,100076.03
2023-02-25T01:28:46.602Z,100077.00
2023-02-25T01:29:09.327Z,100071.81
2023-02-25T01:29:33.881Z,100070.03
2023-02-25T01:29:55.524Z,100068.41
2023-02-25T01:30:18.572Z,100066.44
2023-02-25T01:30:40.522Z,100073.38
2023-02-25T01:31:02.364Z,100078.69
2023-02-25T01:31:29.236Z,100077.78
2023-02-25T01:31:54.345Z,100068.13
2023-02-25T01:32:18.166Z,100074.28
2023-02-25T01:32:40.422Z,100070.72
2023-02-25T01:33:46.862Z,100073.25
2023-02-25T01:34:10.989Z,100069.78
2023-02-25T01:34:33.872Z,100069.88
2023-02-25T01:34:58.658Z,100068.16
2023-02-25T01:35:20.572Z,100070.84
2023-02-25T01:35:42.473Z,100068.16
2023-02-25T01:36:06.551Z,100066.44
2023-02-25T01:36:32.145Z,100068.16
2023-02-25T01:36:54.162Z,100076.13
2023-02-25T01:37:16.182Z,100068.16
2023-02-25T01:37:37.995Z,100072.56
2023-02-25T01:38:00.738Z,100066.44
2023-02-25T01:38:22.498Z,100077.16
2023-02-25T01:38:44.259Z,100072.72
2023-02-25T01:39:06.347Z,100072.84
2023-02-25T01:39:28.598Z,100066.06
2023-02-25T01:39:51.431Z,100074.78
2023-02-25T01:40:17.030Z,100072.16
2023-02-25T01:40:38.830Z,100072.91
2023-02-25T01:41:01.113Z,100068.44
2023-02-25T01:41:24.131Z,100076.28
2023-02-25T01:41:46.511Z,100073.56
2023-02-25T01:42:15.209Z,100073.63
2023-02-25T01:42:36.903Z,100081.50
2023-02-25T01:42:59.630Z,100078.78
2023-02-25T01:43:22.909Z,100077.06
2023-02-25T01:44:03.770Z,100075.19
2023-02-25T01:44:31.726Z,100079.50
2023-02-25T01:45:28.799Z,100082.13
2023-02-25T01:45:50.665Z,100077.78
2023-02-25T01:46:13.476Z,100080.38
2023-02-25T01:46:35.707Z,100077.09
2023-02-25T01:46:58.003Z,100074.44
2023-02-25T01:47:20.885Z,100077.78
2023-02-25T01:47:42.709Z,100072.44
2023-02-25T01:48:12.265Z,100080.28
2023-02-25T01:48:38.638Z,100078.38
2023-02-25T01:49:01.706Z,100080.16
2023-02-25T01:49:29.098Z,100075.66
2023-02-25T01:49:52.734Z,100075.75
2023-02-25T01:50:15.078Z,100080.91
2023-02-25T01:50:42.597Z,100076.53
2023-02-25T01:51:10.078Z,100078.38
2023-02-25T01:51:34.007Z,100072.13
2023-02-25T01:51:59.614Z,100080.06
2023-02-25T01:52:23.975Z,100073.88
2023-02-25T01:52:46.095Z,100074.78
2023-02-25T01:53:10.266Z,100073.09
2023-02-25T01:53:37.403Z,100072.22
2023-02-25T01:54:02.919Z,100074.78
2023-02-25T01:54:26.070Z,100072.22
2023-02-25T01:54:53.617Z,100075.75
2023-02-25T01:55:15.942Z,100076.09
2023-02-25T01:55:41.510Z,100077.88
2023-02-25T01:56:05.358Z,100067.22
2023-02-25T01:56:27.924Z,100075.19
2023-02-25T01:56:52.932Z,100075.16
2023-02-25T01:57:17.158Z,100078.66
2023-02-25T01:57:39.131Z,100081.22
2023-02-25T01:58:03.162Z,100076.78
2023-02-25T01:58:26.918Z,100072.41
2023-02-25T01:58:49.533Z,100079.34
2023-02-25T01:59:12.767Z,100082.00
2023-02-25T01:59:39.498Z,100084.63
2023-02-25T02:00:01.568Z,100074.91
2023-02-25T02:00:35.968Z,100081.97
2023-02-25T02:00:57.982Z,100076.78
2023-02-25T02:01:25.376Z,100077.69
2023-02-25T02:01:47.457Z,100079.34
2023-02-25T02:02:10.007Z,100078.56
2023-02-25T02:02:34.190Z,100081.16
2023-02-25T02:03:00.936Z,100079.41
2023-02-25T02:03:27.670Z,100081.91
2023-02-25T02:03:51.473Z,100080.19
2023-02-25T02:04:15.150Z,100074.22
2023-02-25T02:04:39.565Z,100082.94
2023-02-25T02:05:02.949Z,100080.19
2023-02-25T02:05:29.027Z,100078.44
2023-02-25T02:06:00.136Z,100070.63
2023-02-25T02:06:28.292Z,100083.84
2023-02-25T02:06:52.579Z,100079.41
2023-02-25T02:07:14.631Z,100083.72
2023-02-25T02:07:36.810Z,100075.91
2023-02-25T02:07:59.854Z,100080.28
2023-02-25T02:08:23.389Z,100076.81
2023-02-25T02:08:46.574Z,100080.38
2023-02-25T02:09:13.330Z,100084.84
2023-02-25T02:09:36.854Z,100076.06
2023-02-25T02:10:00.002Z,100080.44
2023-02-25T02:10:22.802Z,100079.56
2023-02-25T02:10:48.991Z,100077.84
2023-02-25T02:11:11.099Z,100084.06
2023-02-25T02:11:33.126Z,100082.28
2023-02-25T02:11:58.632Z,100075.28
2023-02-25T02:12:20.448Z,100076.94
2023-02-25T02:12:46.542Z,100081.38
2023-02-25T02:13:08.453Z,100085.94
2023-02-25T02:13:33.046Z,100079.72
2023-02-25T02:13:59.559Z,100088.69
2023-02-25T02:14:26.804Z,100074.56
2023-02-25T02:14:50.697Z,100075.47
2023-02-25T02:15:15.257Z,100081.78
2023-02-25T02:15:41.158Z,100082.69
2023-02-25T02:16:18.120Z,100082.50
2023-02-25T02:17:14.646Z,100079.75
2023-02-25T02:17:43.753Z,100085.88
2023-02-25T02:18:07.609Z,100079.72
2023-02-25T02:18:34.010Z,100090.28
2023-02-25T02:18:59.958Z,100084.34
2023-02-25T02:19:38.397Z,100083.47
2023-02-25T02:20:11.587Z,100083.44
2023-02-25T02:20:46.133Z,100074.50
2023-02-25T02:21:22.355Z,100078.72
2023-02-25T02:22:00.650Z,100082.34
2023-02-25T02:22:28.814Z,100082.28
2023-02-25T02:23:22.073Z,100080.59
2023-02-25T02:24:17.113Z,100069.28
2023-02-25T02:24:59.645Z,100080.69
2023-02-25T02:25:52.733Z,100074.47
2023-02-25T02:26:34.677Z,100083.34
2023-02-25T02:27:02.310Z,100068.44
2023-02-25T02:27:30.440Z,100073.13
2023-02-25T02:28:26.568Z,100078.31
2023-02-25T02:29:12.978Z,100077.41
2023-02-25T02:29:53.990Z,100074.94
2023-02-25T02:30:36.459Z,100079.38
2023-02-25T02:31:19.618Z,100072.09
2023-02-25T02:31:57.037Z,100062.34
2023-02-25T02:32:31.831Z,100072.72
2023-02-25T02:33:00.935Z,100064.22
2023-02-25T02:33:29.667Z,100075.50
2023-02-25T02:33:58.688Z,100064.09
2023-02-25T02:34:35.656Z,100077.25
2023-02-25T02:35:05.288Z,100076.28
2023-02-25T02:35:36.736Z,100068.41
2023-02-25T02:36:07.116Z,100070.09
2023-02-25T02:36:38.767Z,100078.84
2023-02-25T02:37:13.054Z,100074.50
2023-02-25T02:37:43.871Z,100072.97
2023-02-25T02:38:14.702Z,100073.69
2023-02-25T02:38:42.546Z,100072.75
2023-02-25T02:39:13.578Z,100070.94
2023-02-25T02:39:49.757Z,100078.88
2023-02-25T02:40:24.743Z,100081.53
2023-02-25T02:40:55.008Z,100071.81
2023-02-25T02:41:27.520Z,100079.59
2023-02-25T02:41:59.983Z,100080.44
2023-02-25T02:42:31.558Z,100086.53
2023-02-25T02:43:09.720Z,100076.03
2023-02-25T02:43:42.793Z,100076.84
2023-02-25T02:44:12.844Z,100069.00
2023-02-25T02:44:42.288Z,100071.53
2023-02-25T02:45:10.583Z,100079.34
2023-02-25T02:45:40.498Z,100075.88
2023-02-25T02:46:10.220Z,100072.41
2023-02-25T02:46:38.524Z,100074.13
2023-02-25T02:47:05.437Z,100079.34
2023-02-25T02:47:33.457Z,100070.63
2023-02-25T02:48:00.726Z,100082.88
2023-02-25T02:48:29.516Z,100075.91
2023-02-25T02:48:56.252Z,100079.50
2023-02-25T02:49:21.933Z,100081.38
2023-02-25T02:49:46.913Z,100080.44
2023-02-25T02:50:13.475Z,100075.91
2023-02-25T02:50:38.949Z,100083.84
2023-02-25T02:51:03.413Z,100082.09
2023-02-25T02:51:30.442Z,100083.94
2023-02-25T02:51:58.928Z,100073.25
2023-02-25T02:52:25.153Z,100072.28
2023-02-25T02:52:52.182Z,100074.94
2023-02-25T02:53:21.142Z,100080.28
2023-02-25T02:53:48.071Z,100071.53
2023-02-25T02:54:14.074Z,100081.00
2023-02-25T02:54:39.795Z,100071.34
2023-02-25T02:55:06.320Z,100080.94
2023-02-25T02:55:33.499Z,100083.59
2023-02-25T02:55:59.052Z,100084.41
2023-02-25T02:56:25.036Z,100085.28
2023-02-25T02:56:51.786Z,100087.81
2023-02-25T02:57:15.685Z,100084.25
2023-02-25T02:57:42.070Z,100084.25
2023-02-25T02:58:10.865Z,100080.91
2023-02-25T02:58:36.852Z,100080.91
2023-02-25T02:59:05.262Z,100090.66
2023-02-25T02:59:33.997Z,100082.69
2023-02-25T03:00:00.537Z,100084.44
2023-02-25T03:00:28.285Z,100086.19
2023-02-25T03:00:58.209Z,100078.38
2023-02-25T03:01:24.932Z,100081.78
2023-02-25T03:01:52.556Z,100084.38
2023-02-25T03:02:18.152Z,100090.56
2023-02-25T03:02:43.018Z,100099.31
2023-02-25T03:03:10.255Z,100090.56
2023-02-25T03:03:36.628Z,100091.44
2023-02-25T03:04:01.485Z,100089.72
2023-02-25T03:04:30.668Z,100084.44
2023-02-25T03:04:57.829Z,100092.31
2023-02-25T03:05:20.761Z,100086.19
2023-02-25T03:05:49.014Z,100080.94
2023-02-25T03:06:16.981Z,100088.72
2023-02-25T03:06:43.046Z,100079.88
2023-02-25T03:07:08.049Z,100088.00
2023-02-25T03:07:35.889Z,100093.28
2023-02-25T03:08:07.075Z,100087.09
2023-02-25T03:08:31.392Z,100090.66
2023-02-25T03:09:00.457Z,100087.03
2023-02-25T03:09:25.594Z,100078.25
2023-02-25T03:09:52.792Z,100101.16
2023-02-25T03:10:20.054Z,100080.63
2023-02-25T03:10:42.826Z,100086.81
2023-02-25T03:11:05.386Z,100077.22
2023-02-25T03:11:27.108Z,100091.16
2023-02-25T03:11:50.435Z,100090.22
2023-02-25T03:12:13.683Z,100087.53
2023-02-25T03:12:38.789Z,100085.75
2023-02-25T03:13:00.894Z,100091.81
2023-02-25T03:13:24.417Z,100083.94
2023-02-25T03:13:46.320Z,100086.53
2023-02-25T03:14:08.600Z,100091.22
2023-02-25T03:14:30.438Z,100093.97
2023-02-25T03:14:53.301Z,100091.47
2023-02-25T03:15:15.449Z,100090.50
2023-02-25T03:15:39.010Z,100059.22
2023-02-25T03:16:05.562Z,100090.44
2023-02-25T03:16:34.858Z,100090.47
2023-02-25T03:17:04.882Z,100087.69
2023-02-25T03:17:29.366Z,100084.06
2023-02-25T03:17:54.786Z,100085.88
2023-02-25T03:18:24.325Z,100088.53
2023-02-25T03:18:54.210Z,100096.38
2023-02-25T03:19:19.289Z,100089.22
2023-02-25T03:19:45.409Z,100082.28
2023-02-25T03:20:11.780Z,100077.69
2023-02-25T03:20:40.166Z,100080.28
2023-02-25T03:21:08.569Z,100083.84
2023-02-25T03:21:35.435Z,100081.19
2023-02-25T03:22:03.003Z,100083.84
2023-02-25T03:22:29.660Z,100085.56
2023-02-25T03:22:56.186Z,100092.63
2023-02-25T03:23:20.683Z,100088.44
2023-02-25T03:23:46.394Z,100081.41
2023-02-25T03:24:15.337Z,100085.00
2023-02-25T03:24:45.544Z,100092.84
2023-02-25T03:25:14.874Z,100081.41
2023-02-25T03:25:47.522Z,100081.53
2023-02-25T03:26:18.634Z,100090.19
2023-02-25T03:26:42.589Z,100083.13
2023-02-25T03:27:23.216Z,100084.72
2023-02-25T03:27:48.797Z,100080.38
2023-02-25T03:28:23.515Z,100086.44
2023-02-25T03:28:47.310Z,100085.72
2023-02-25T03:29:16.207Z,100082.38
2023-02-25T03:29:39.339Z,100077.72
2023-02-25T03:30:06.209Z,100076.19
2023-02-25T03:30:33.851Z,100084.13
2023-02-25T03:31:03.893Z,100084.94
2023-02-25T03:31:29.719Z,100079.66
2023-02-25T03:31:56.610Z,100073.59
2023-02-25T03:32:21.308Z,100077.72
2023-02-25T03:32:47.513Z,100085.66
2023-02-25T03:33:27.079Z,100091.81
2023-02-25T03:33:54.700Z,100083.13
2023-02-25T03:34:20.476Z,100092.56
2023-02-25T03:34:47.157Z,100095.19
2023-02-25T03:35:11.533Z,100084.63
2023-02-25T03:35:35.649Z,100088.16
2023-02-25T03:35:59.398Z,100088.16
2023-02-25T03:36:27.614Z,100093.59
2023-02-25T03:36:54.386Z,100087.50
2023-02-25T03:37:21.866Z,100085.00
2023-02-25T03:37:49.887Z,100101.84
2023-02-25T03:38:17.519Z,100094.69
2023-02-25T03:38:44.130Z,100100.94
2023-02-25T03:39:11.534Z,100096.47
2023-02-25T03:39:38.768Z,100092.97
2023-02-25T03:40:08.855Z,100092.97
2023-02-25T03:40:32.738Z,100094.59
2023-02-25T03:41:00.010Z,100095.34
2023-02-25T03:41:25.988Z,100085.66
2023-02-25T03:41:52.373Z,100089.28
2023-02-25T03:42:19.446Z,100098.06
2023-02-25T03:42:48.697Z,100090.19
2023-02-25T03:43:16.339Z,100093.84
2023-02-25T03:43:42.612Z,100091.25
2023-02-25T03:44:09.605Z,100094.06
2023-02-25T03:44:35.863Z,100097.53
2023-02-25T03:45:02.469Z,100095.72
2023-02-25T03:45:25.141Z,100086.09
2023-02-25T03:45:47.934Z,100100.06
2023-02-25T03:46:10.604Z,100101.72
2023-02-25T03:46:35.306Z,100092.09
2023-02-25T03:46:58.520Z,100088.59
2023-02-25T03:47:25.474Z,100100.00
2023-02-25T03:47:47.743Z,100092.97
2023-02-25T03:48:12.929Z,100096.44
2023-02-25T03:48:36.897Z,100092.06
2023-02-25T03:49:04.444Z,100093.78
2023-02-25T03:49:30.678Z,100099.25
2023-02-25T03:49:59.197Z,100100.03
2023-02-25T03:50:25.294Z,100096.47
2023-02-25T03:50:59.329Z,100092.34
2023-02-25T03:51:26.327Z,100097.78
2023-02-25T03:51:50.994Z,100092.53
2023-02-25T03:52:18.328Z,100085.41
2023-02-25T03:52:42.133Z,100097.56
2023-02-25T03:53:16.504Z,100095.81
2023-02-25T03:53:50.579Z,100111.66
2023-02-25T03:54:16.814Z,100096.69
2023-02-25T03:54:40.300Z,100085.97
2023-02-25T03:55:03.176Z,100093.91
2023-02-25T03:55:25.657Z,100098.25
2023-02-25T03:55:48.801Z,100099.19
2023-02-25T03:56:12.085Z,100095.72
2023-02-25T03:56:42.628Z,100093.09
2023-02-25T03:57:05.590Z,100094.78
2023-02-25T03:57:36.231Z,100094.63
2023-02-25T03:57:58.027Z,100096.44
2023-02-25T03:58:19.931Z,100095.47
2023-02-25T03:58:44.030Z,100096.34
2023-02-25T03:59:05.705Z,100096.28
2023-02-25T03:59:27.889Z,100095.34
2023-02-25T03:59:49.663Z,100096.22
2023-02-25T04:00:19.216Z,100099.88
2023-02-25T04:00:44.185Z,100099.00
2023-02-25T04:01:09.673Z,100087.56
2023-02-25T04:01:31.902Z,100104.31
2023-02-25T04:01:57.257Z,100095.47
2023-02-25T04:02:21.291Z,100094.59
2023-02-25T04:02:44.588Z,100099.88
2023-02-25T04:03:06.682Z,100101.63
2023-02-25T04:03:29.760Z,100102.53
2023-02-25T04:03:51.980Z,100101.50
2023-02-25T04:04:14.949Z,100103.34
2023-02-25T04:04:37.510Z,100107.66
2023-02-25T04:05:00.602Z,100096.16
2023-02-25T04:05:26.882Z,100098.72
2023-02-25T04:05:48.634Z,100094.41
2023-02-25T04:06:12.045Z,100099.59
2023-02-25T04:06:34.805Z,100097.94
2023-02-25T04:06:56.655Z,100095.28
2023-02-25T04:07:18.441Z,100105.94
2023-02-25T04:07:40.404Z,100107.00
2023-02-25T04:08:03.479Z,100102.66
2023-02-25T04:08:28.881Z,100110.56
2023-02-25T04:08:50.684Z,100107.09
2023-02-25T04:09:12.809Z,100102.72
2023-02-25T04:09:35.554Z,100101.06
2023-02-25T04:09:57.439Z,100112.31
2023-02-25T04:10:19.602Z,100102.66
2023-02-25T04:10:43.542Z,100101.72
2023-02-25T04:11:07.196Z,100094.75
2023-02-25T04:11:29.222Z,100095.91
2023-02-25T04:11:50.920Z,100103.75
2023-02-25T04:12:12.734Z,100094.06
2023-02-25T04:12:34.648Z,100103.63
2023-02-25T04:12:57.594Z,100106.28
2023-02-25T04:13:20.865Z,100095.66
2023-02-25T04:13:43.701Z,100100.06
2023-02-25T04:14:05.479Z,100099.13
2023-02-25T04:14:28.626Z,100092.19
2023-02-25T04:14:50.320Z,100109.72
2023-02-25T04:15:14.165Z,100097.25
2023-02-25T04:15:36.489Z,100098.25
2023-02-25T04:15:58.972Z,100102.63
2023-02-25T04:16:22.558Z,100114.00
2023-02-25T04:16:45.147Z,100101.72
2023-02-25T04:17:06.945Z,100103.44
2023-02-25T04:17:30.027Z,100106.00
2023-02-25T04:17:51.863Z,100117.44
2023-02-25T04:18:14.817Z,100102.44
2023-02-25T04:18:36.527Z,100110.47
2023-02-25T04:18:59.989Z,100105.28
2023-02-25T04:19:23.598Z,100107.13
2023-02-25T04:19:45.780Z,100108.84
2023-02-25T04:20:08.850Z,100110.84
2023-02-25T04:20:31.186Z,100102.03
2023-02-25T04:20:54.435Z,100107.25
2023-02-25T04:21:28.159Z,100109.84
2023-02-25T04:21:49.836Z,100105.41
2023-02-25T04:22:11.792Z,100100.13
2023-02-25T04:22:35.081Z,100097.41
2023-02-25T04:22:56.800Z,100112.34
2023-02-25T04:23:18.553Z,100111.50
2023-02-25T04:23:40.295Z,100105.50
2023-02-25T04:24:04.156Z,100103.56
2023-02-25T04:24:26.242Z,100108.81
2023-02-25T04:24:47.998Z,100111.59
2023-02-25T04:25:10.058Z,100108.13
2023-02-25T04:25:32.788Z,100112.47
2023-02-25T04:25:54.697Z,100110.63
2023-02-25T04:26:16.549Z,100118.66
2023-02-25T04:26:38.199Z,100108.94
2023-02-25T04:27:01.851Z,100113.19
2023-02-25T04:27:24.170Z,100121.06
2023-02-25T04:27:46.062Z,100117.59
2023-02-25T04:28:07.832Z,100107.00
2023-02-25T04:28:29.505Z,100112.22
2023-02-25T04:28:53.030Z,100117.59
2023-02-25T04:29:14.749Z,100110.56
2023-02-25T04:29:36.464Z,100108.94
2023-02-25T04:29:58.342Z,100116.03
2023-02-25T04:30:21.899Z,100123.91
2023-02-25T04:30:43.958Z,100113.28
2023-02-25T04:31:05.696Z,100113.28
2023-02-25T04:31:27.700Z,100117.66
2023-02-25T04:31:50.860Z,100109.72
2023-02-25T04:32:12.930Z,100120.34
2023-02-25T04:32:36.277Z,100117.66
2023-02-25T04:32:58.039Z,100119.44
2023-02-25T04:33:19.913Z,100121.13
2023-02-25T04:33:42.665Z,100120.25
2023-02-25T04:34:04.472Z,100120.16
2023-02-25T04:34:26.196Z,100125.41
2023-02-25T04:34:47.937Z,100129.06
2023-02-25T04:35:13.505Z,100123.72
2023-02-25T04:35:35.326Z,100132.63
2023-02-25T04:35:57.113Z,100122.88
2023-02-25T04:36:26.873Z,100128.16
2023-02-25T04:36:50.057Z,100122.75
2023-02-25T04:37:11.797Z,100121.03
2023-02-25T04:37:34.477Z,100123.72
2023-02-25T04:37:56.439Z,100124.56
2023-02-25T04:38:18.352Z,100125.38
2023-02-25T04:38:40.052Z,100124.56
2023-02-25T04:39:04.658Z,100129.00
2023-02-25T04:39:27.390Z,100122.81
2023-02-25T04:39:49.084Z,100128.41
2023-02-25T04:40:15.140Z,100132.00
2023-02-25T04:40:37.515Z,100130.19
2023-02-25T04:41:00.486Z,100128.47
2023-02-25T04:41:22.823Z,100126.69
2023-02-25T04:41:45.647Z,100127.81
2023-02-25T04:42:07.838Z,100117.31
2023-02-25T04:42:30.628Z,100124.38
2023-02-25T04:42:52.350Z,100133.25
2023-02-25T04:43:14.381Z,100126.22
2023-02-25T04:43:36.130Z,100126.09
2023-02-25T04:43:57.939Z,100125.41
2023-02-25T04:44:20.893Z,100125.31
2023-02-25T04:44:42.777Z,100124.53
2023-02-25T04:45:05.324Z,100123.53
2023-02-25T04:45:27.360Z,100123.50
2023-02-25T04:45:50.424Z,100118.34
2023-02-25T04:46:12.695Z,100119.16
2023-02-25T04:46:37.439Z,100126.28
2023-02-25T04:46:59.307Z,100122.63